createdAt,value
2023-01-01T00:02:04.836Z,78.02
2023-01-01T00:05:32.314Z,78.05
2023-01-01T00:09:13.110Z,78.01
2023-01-01T00:12:40.389Z,77.99
2023-01-01T00:16:12.651Z,77.92
2023-01-01T00:19:39.947Z,78.04
2023-01-01T00:23:06.946Z,78.02
2023-01-01T00:26:35.586Z,78.06
2023-01-01T00:30:04.443Z,78.06
2023-01-01T00:33:31.598Z,77.95
2023-01-01T00:36:59.566Z,77.91
2023-01-01T00:40:26.738Z,77.85
2023-01-01T00:43:53.694Z,77.53
2023-01-01T00:47:20.540Z,77.31
2023-01-01T00:50:47.606Z,77.41
2023-01-01T00:54:14.459Z,77.10
2023-01-01T00:57:41.828Z,77.01
2023-01-01T01:01:09.487Z,77.05
2023-01-01T01:04:36.787Z,76.86
2023-01-01T01:08:03.695Z,76.60
2023-01-01T01:11:30.864Z,76.88
2023-01-01T01:14:57.721Z,76.49
2023-01-01T01:18:24.674Z,76.72
2023-01-01T01:21:52.583Z,76.73
2023-01-01T01:25:19.737Z,76.55
2023-01-01T01:28:50.086Z,76.61
2023-01-01T01:32:17.481Z,76.47
2023-01-01T01:35:51.313Z,76.62
2023-01-01T01:39:18.351Z,76.72
2023-01-01T01:42:48.665Z,76.65
2023-01-01T01:46:19.009Z,76.68
2023-01-01T01:49:47.474Z,76.94
2023-01-01T01:53:19.113Z,77.02
2023-01-01T01:56:51.776Z,77.14
2023-01-01T02:00:20.109Z,77.14
2023-01-01T02:03:52.961Z,77.21
2023-01-01T02:07:20.800Z,77.27
2023-01-01T02:10:47.750Z,76.96
2023-01-01T02:14:15.311Z,77.04
2023-01-01T02:17:53.745Z,76.98
2023-01-01T02:21:26.598Z,77.04
2023-01-01T02:25:06.432Z,76.89
2023-01-01T02:28:51.885Z,76.86
2023-01-01T02:32:22.389Z,76.67
2023-01-01T02:35:53.707Z,76.60
2023-01-01T02:39:23.772Z,76.37
2023-01-01T02:42:51.940Z,76.24
2023-01-01T02:49:52.634Z,76.12
2023-01-01T02:53:28.509Z,75.82
2023-01-01T02:57:06.291Z,75.65
2023-01-01T03:00:35.384Z,75.60
2023-01-01T03:04:13.006Z,75.68
2023-01-01T03:07:50.148Z,75.69
2023-01-01T03:11:19.950Z,75.65
2023-01-01T03:14:47.570Z,75.46
2023-01-01T03:18:20.353Z,75.38
2023-01-01T03:21:51.849Z,75.35
2023-01-01T03:25:24.002Z,75.23
2023-01-01T03:28:57.139Z,75.36
2023-01-01T03:32:50.006Z,75.32
2023-01-01T03:36:20.497Z,75.19
2023-01-01T03:39:51.142Z,74.97
2023-01-01T03:43:23.795Z,75.19
2023-01-01T03:46:51.515Z,75.19
2023-01-01T03:50:19.093Z,75.18
2023-01-01T03:53:46.322Z,75.13
2023-01-01T03:57:21.131Z,75.14
2023-01-01T04:00:52.724Z,75.23
2023-01-01T04:04:20.706Z,75.34
2023-01-01T04:11:50.109Z,75.25
2023-01-01T04:15:17.443Z,75.54
2023-01-01T04:18:44.458Z,75.57
2023-01-01T04:22:11.480Z,75.62
2023-01-01T04:25:38.407Z,75.75
2023-01-01T04:29:05.288Z,75.89
2023-01-01T04:32:33.299Z,76.03
2023-01-01T04:36:07.410Z,76.13
2023-01-01T04:39:34.301Z,76.25
2023-01-01T04:43:01.657Z,76.32
2023-01-01T04:46:28.802Z,76.40
2023-01-01T04:49:55.680Z,76.30
2023-01-01T04:53:22.662Z,76.32
2023-01-01T04:56:49.454Z,76.32
2023-01-01T05:00:17.459Z,76.20
2023-01-01T05:03:44.547Z,76.06
2023-01-01T05:07:11.356Z,75.85
2023-01-01T05:10:38.234Z,75.76
2023-01-01T05:14:05.530Z,75.58
2023-01-01T05:17:32.337Z,75.44
2023-01-01T05:21:03.392Z,75.19
2023-01-01T05:24:31.499Z,74.93
2023-01-01T05:27:58.401Z,74.25
2023-01-01T05:31:27.337Z,74.17
2023-01-01T05:34:55.156Z,73.67
2023-01-01T05:38:22.464Z,73.58
2023-01-01T05:41:49.378Z,73.53
2023-01-01T05:45:16.410Z,73.34
2023-01-01T05:48:43.487Z,73.11
2023-01-01T05:52:10.550Z,72.63
2023-01-01T05:55:37.415Z,73.02
2023-01-01T05:59:05.488Z,72.97
2023-01-01T06:02:34.294Z,73.14
2023-01-01T06:06:06.321Z,73.13
2023-01-01T06:09:33.508Z,73.13
2023-01-01T06:13:00.621Z,73.03
2023-01-01T06:16:29.741Z,72.90
2023-01-01T06:19:56.668Z,73.06
2023-01-01T06:23:23.506Z,72.52
2023-01-01T06:26:50.334Z,72.34
2023-01-01T06:30:17.341Z,72.20
2023-01-01T06:33:44.773Z,71.68
2023-01-01T06:37:11.739Z,71.48
2023-01-01T06:40:38.609Z,71.02
2023-01-01T06:44:05.818Z,71.31
2023-01-01T06:47:36.352Z,71.24
2023-01-01T06:51:11.365Z,70.73
2023-01-01T06:54:38.295Z,70.20
2023-01-01T06:58:09.342Z,70.35
2023-01-01T07:01:44.454Z,70.26
2023-01-01T07:05:12.493Z,69.69
2023-01-01T07:08:39.617Z,69.23
2023-01-01T07:12:07.071Z,69.19
2023-01-01T07:15:34.422Z,69.17
2023-01-01T07:19:01.788Z,68.95
2023-01-01T07:22:29.198Z,68.59
2023-01-01T07:25:57.547Z,68.01
2023-01-01T07:29:24.843Z,67.93
2023-01-01T07:32:57.436Z,67.71
2023-01-01T07:36:24.518Z,67.68
2023-01-01T07:39:51.526Z,67.11
2023-01-01T07:43:18.467Z,66.97
2023-01-01T07:46:45.409Z,66.61
2023-01-01T07:50:18.350Z,66.54
2023-01-01T07:53:45.270Z,66.01
2023-01-01T07:57:12.357Z,65.70
2023-01-01T08:00:39.592Z,65.61
2023-01-01T08:04:06.734Z,65.08
2023-01-01T08:07:33.717Z,64.73
2023-01-01T08:11:04.440Z,63.64
2023-01-01T08:14:29.781Z,64.19
2023-01-01T08:18:00.298Z,64.07
2023-01-01T08:21:27.609Z,63.95
2023-01-01T08:24:54.751Z,63.17
2023-01-01T08:28:21.607Z,63.24
2023-01-01T08:31:48.478Z,63.23
2023-01-01T08:35:15.664Z,62.99
2023-01-01T08:38:42.532Z,63.04
2023-01-01T08:42:12.401Z,62.86
2023-01-01T08:45:39.711Z,63.16
2023-01-01T08:49:06.956Z,63.05
2023-01-01T08:52:34.228Z,63.46
2023-01-01T08:56:03.938Z,63.28
2023-01-01T08:59:31.009Z,63.96
2023-01-01T09:02:58.104Z,64.09
2023-01-01T09:06:25.268Z,63.22
2023-01-01T09:09:52.344Z,63.36
2023-01-01T09:13:22.738Z,63.18
2023-01-01T09:16:49.854Z,63.00
2023-01-01T09:20:18.944Z,62.95
2023-01-01T09:23:45.962Z,62.46
2023-01-01T09:27:12.866Z,62.46
2023-01-01T09:30:39.785Z,62.44
2023-01-01T09:34:06.712Z,62.44
2023-01-01T09:37:34.620Z,62.41
2023-01-01T09:41:10.619Z,62.85
2023-01-01T09:45:00.325Z,62.64
2023-01-01T09:48:30.525Z,62.71
2023-01-01T09:52:01.798Z,62.51
2023-01-01T09:55:44.772Z,62.19
2023-01-01T09:59:13.327Z,62.50
2023-01-01T10:02:54.019Z,62.34
2023-01-01T10:06:27.312Z,62.34
2023-01-01T10:10:05.098Z,61.64
2023-01-01T10:13:39.153Z,61.85
2023-01-01T10:17:12.395Z,61.63
2023-01-01T10:20:44.163Z,61.92
2023-01-01T10:24:29.400Z,62.02
2023-01-01T10:28:01.112Z,62.42
2023-01-01T10:31:34.563Z,62.53
2023-01-01T10:35:03.543Z,62.25
2023-01-01T10:38:30.824Z,62.69
2023-01-01T10:42:01.619Z,62.49
2023-01-01T10:45:34.260Z,62.72
2023-01-01T10:49:12.182Z,62.97
2023-01-01T10:52:41.049Z,62.92
2023-01-01T10:56:11.790Z,62.98
2023-01-01T10:59:40.876Z,62.89
2023-01-01T11:03:21.211Z,62.81
2023-01-01T11:06:49.371Z,63.04
2023-01-01T11:10:21.304Z,63.29
2023-01-01T11:13:52.854Z,63.30
2023-01-01T11:17:24.979Z,63.21
2023-01-01T11:20:57.403Z,63.29
2023-01-01T11:24:27.004Z,63.53
2023-01-01T11:27:52.402Z,63.59
2023-01-01T11:31:21.579Z,63.15
2023-01-01T11:34:54.963Z,63.11
2023-01-01T11:38:29.524Z,63.44
2023-01-01T11:41:59.388Z,63.59
2023-01-01T11:45:37.247Z,63.46
2023-01-01T11:49:13.853Z,63.70
2023-01-01T11:52:42.599Z,63.42
2023-01-01T11:56:14.110Z,63.52
2023-01-01T11:59:48.244Z,63.41
2023-01-01T12:03:33.322Z,63.59
2023-01-01T12:07:06.478Z,63.73
2023-01-01T12:10:41.715Z,63.73
2023-01-01T12:14:18.483Z,63.66
2023-01-01T12:17:48.466Z,63.52
2023-01-01T12:21:23.667Z,63.67
2023-01-01T12:24:52.108Z,63.59
2023-01-01T12:28:35.159Z,63.60
2023-01-01T12:32:08.239Z,63.70
2023-01-01T12:35:45.176Z,63.45
2023-01-01T12:39:45.837Z,63.77
2023-01-01T12:43:15.921Z,63.87
2023-01-01T12:46:57.943Z,64.16
2023-01-01T12:50:36.916Z,64.31
2023-01-01T12:54:31.534Z,64.27
2023-01-01T12:58:05.884Z,64.49
2023-01-01T13:01:34.997Z,64.65
2023-01-01T13:05:09.012Z,64.83
2023-01-01T13:08:38.981Z,64.85
2023-01-01T13:12:09.259Z,64.95
2023-01-01T13:15:55.245Z,65.06
2023-01-01T13:19:35.062Z,65.11
2023-01-01T13:23:01.956Z,65.39
2023-01-01T13:26:42.759Z,65.60
2023-01-01T13:30:53.738Z,65.79
2023-01-01T13:34:50.843Z,65.93
2023-01-01T13:38:44.772Z,66.31
2023-01-01T13:42:41.669Z,66.63
2023-01-01T13:46:13.034Z,66.65
2023-01-01T13:49:59.900Z,66.90
2023-01-01T13:53:51.101Z,66.92
2023-01-01T13:57:33.462Z,66.96
2023-01-01T14:01:36.106Z,67.05
2023-01-01T14:05:06.906Z,67.05
2023-01-01T14:08:35.415Z,67.13
2023-01-01T14:12:16.086Z,67.39
2023-01-01T14:15:51.243Z,67.58
2023-01-01T14:19:18.303Z,67.71
2023-01-01T14:22:47.014Z,67.75
2023-01-01T14:26:16.675Z,67.80
2023-01-01T14:29:43.247Z,67.97
2023-01-01T14:33:25.299Z,68.08
2023-01-01T14:36:56.621Z,68.30
2023-01-01T14:40:29.580Z,68.35
2023-01-01T14:43:59.432Z,68.50
2023-01-01T14:47:30.131Z,68.58
2023-01-01T14:50:58.480Z,68.75
2023-01-01T14:54:32.461Z,68.94
2023-01-01T14:58:02.336Z,69.05
2023-01-01T15:01:29.769Z,69.26
2023-01-01T15:04:58.411Z,69.36
2023-01-01T15:08:27.034Z,69.54
2023-01-01T15:11:56.590Z,69.68
2023-01-01T15:15:44.294Z,69.92
2023-01-01T15:19:24.340Z,70.12
2023-01-01T15:22:52.949Z,70.17
2023-01-01T15:26:30.340Z,70.54
2023-01-01T15:29:57.888Z,70.76
2023-01-01T15:33:25.542Z,70.93
2023-01-01T15:36:54.433Z,71.10
2023-01-01T15:40:52.760Z,71.19
2023-01-01T15:44:29.330Z,71.36
2023-01-01T15:47:58.509Z,71.56
2023-01-01T15:51:28.417Z,71.77
2023-01-01T15:54:55.751Z,72.01
2023-01-01T15:58:31.872Z,72.25
2023-01-01T16:02:13.539Z,72.50
2023-01-01T16:05:50.314Z,72.54
2023-01-01T16:09:20.187Z,72.69
2023-01-01T16:12:47.030Z,72.90
2023-01-01T16:16:28.225Z,73.36
2023-01-01T16:19:56.389Z,73.68
2023-01-01T16:23:23.732Z,73.61
2023-01-01T16:26:50.897Z,73.74
2023-01-01T16:30:18.436Z,73.84
2023-01-01T16:33:46.308Z,73.81
2023-01-01T16:37:13.225Z,73.99
2023-01-01T16:40:40.495Z,74.01
2023-01-01T16:44:07.671Z,74.06
2023-01-01T16:47:34.600Z,74.07
2023-01-01T16:51:01.842Z,74.43
2023-01-01T16:54:28.974Z,74.56
2023-01-01T16:58:21.235Z,74.51
2023-01-01T17:01:44.886Z,74.73
2023-01-01T17:05:12.927Z,74.69
2023-01-01T17:08:40.793Z,74.54
2023-01-01T17:12:08.454Z,74.71
2023-01-01T17:15:35.860Z,74.74
2023-01-01T17:19:18.144Z,74.89
2023-01-01T17:22:46.150Z,74.82
2023-01-01T17:26:16.024Z,74.77
2023-01-01T17:29:43.005Z,74.89
2023-01-01T17:33:10.017Z,75.00
2023-01-01T17:36:36.892Z,75.06
2023-01-01T17:40:03.915Z,74.99
2023-01-01T17:43:34.921Z,75.04
2023-01-01T17:47:02.071Z,75.28
2023-01-01T17:50:29.852Z,75.59
2023-01-01T17:53:57.571Z,75.69
2023-01-01T17:57:25.392Z,75.71
2023-01-01T18:00:52.905Z,75.81
2023-01-01T18:04:20.793Z,75.82
2023-01-01T18:07:47.657Z,75.60
2023-01-01T18:11:14.920Z,75.72
2023-01-01T18:14:41.997Z,75.60
2023-01-01T18:18:08.895Z,75.64
2023-01-01T18:21:36.354Z,75.74
2023-01-01T18:25:03.357Z,75.72
2023-01-01T18:28:31.201Z,75.88
2023-01-01T18:31:58.182Z,75.87
2023-01-01T18:35:25.066Z,75.97
2023-01-01T18:39:00.573Z,75.92
2023-01-01T18:42:44.342Z,75.95
2023-01-01T18:46:12.429Z,76.17
2023-01-01T18:49:40.743Z,76.48
2023-01-01T18:53:19.302Z,76.51
2023-01-01T18:56:48.107Z,76.19
2023-01-01T19:00:24.170Z,76.40
2023-01-01T19:03:53.707Z,76.46
2023-01-01T19:07:21.220Z,76.39
2023-01-01T19:10:50.618Z,76.34
2023-01-01T19:14:20.010Z,76.55
2023-01-01T19:17:47.489Z,76.48
2023-01-01T19:21:22.531Z,76.68
2023-01-01T19:24:49.479Z,76.61
2023-01-01T19:28:39.414Z,76.66
2023-01-01T19:32:06.982Z,76.67
2023-01-01T19:35:33.857Z,76.75
2023-01-01T19:39:01.143Z,76.62
2023-01-01T19:42:28.447Z,76.88
2023-01-01T19:45:55.422Z,76.86
2023-01-01T19:49:22.236Z,77.02
2023-01-01T19:52:49.230Z,77.04
2023-01-01T19:56:16.890Z,77.11
2023-01-01T19:59:43.818Z,77.31
2023-01-01T20:03:51.448Z,77.31
2023-01-01T20:06:57.782Z,77.69
2023-01-01T20:10:25.167Z,78.09
2023-01-01T20:13:52.517Z,78.28
2023-01-01T20:17:19.808Z,78.32
2023-01-01T20:21:00.671Z,78.25
2023-01-01T20:24:27.865Z,78.21
2023-01-01T20:28:12.443Z,77.94
2023-01-01T20:31:40.530Z,77.93
2023-01-01T20:35:08.606Z,77.97
2023-01-01T20:38:40.019Z,77.90
2023-01-01T20:42:08.090Z,78.03
2023-01-01T20:45:35.055Z,78.09
2023-01-01T20:49:02.031Z,77.93
2023-01-01T20:52:29.850Z,77.89
2023-01-01T20:55:56.730Z,77.78
2023-01-01T20:59:35.396Z,77.97
2023-01-01T21:03:04.336Z,77.86
2023-01-01T21:06:31.399Z,77.97
2023-01-01T21:09:58.287Z,77.97
2023-01-01T21:13:25.781Z,78.06
2023-01-01T21:16:53.016Z,78.07
2023-01-01T21:20:20.393Z,78.07
2023-01-01T21:23:47.842Z,78.12
2023-01-01T21:27:19.073Z,78.05
2023-01-01T21:30:51.773Z,78.10
2023-01-01T21:34:38.456Z,78.04
2023-01-01T21:38:17.451Z,78.06
2023-01-01T21:41:44.506Z,77.98
2023-01-01T21:45:19.333Z,78.06
2023-01-01T21:48:56.396Z,77.99
2023-01-01T21:52:26.064Z,77.84
2023-01-01T21:55:55.343Z,77.83
2023-01-01T21:59:30.373Z,77.80
2023-01-01T22:02:57.291Z,78.09
2023-01-01T22:06:24.440Z,78.08
2023-01-01T22:09:52.428Z,77.85
2023-01-01T22:13:20.830Z,78.18
2023-01-01T22:16:52.453Z,78.13
2023-01-01T22:20:24.165Z,78.08
2023-01-01T22:23:55.754Z,78.22
2023-01-01T22:27:30.188Z,78.21
2023-01-01T22:31:01.096Z,78.25
2023-01-01T22:34:28.220Z,78.21
2023-01-01T22:37:56.641Z,78.06
2023-01-01T22:41:23.951Z,78.03
2023-01-01T22:45:00.538Z,77.98
2023-01-01T22:48:33.692Z,78.17
2023-01-01T22:52:01.767Z,78.13
2023-01-01T22:55:28.893Z,78.07
2023-01-01T22:58:57.630Z,77.85
2023-01-01T23:02:24.982Z,77.89
2023-01-01T23:05:53.058Z,78.03
2023-01-01T23:09:20.138Z,77.87
2023-01-01T23:12:47.267Z,77.74
2023-01-01T23:16:14.363Z,77.62
2023-01-01T23:19:41.379Z,77.77
2023-01-01T23:23:08.330Z,77.78
2023-01-01T23:26:35.435Z,77.61
2023-01-01T23:30:03.686Z,77.62
2023-01-01T23:33:32.615Z,77.68
2023-01-01T23:36:59.863Z,77.77
2023-01-01T23:40:27.078Z,77.86
2023-01-01T23:43:53.985Z,77.84
2023-01-01T23:47:21.168Z,77.71
2023-01-01T23:50:48.865Z,77.78
2023-01-01T23:54:15.910Z,77.79
2023-01-01T23:57:42.873Z,77.78
